createdAt,value
2018-08-17T00:01:49.161Z,18.50
2018-08-17T00:04:17.817Z,18.30
2018-08-17T00:06:46.469Z,18.10
2018-08-17T00:09:15.167Z,18.10
2018-08-17T00:11:43.920Z,17.90
2018-08-17T00:14:12.571Z,17.90
2018-08-17T00:16:52.852Z,18.00
2018-08-17T00:19:25.860Z,18.00
2018-08-17T00:22:08.036Z,18.10
2018-08-17T00:24:37.710Z,17.80
2018-08-17T00:27:07.256Z,17.40
2018-08-17T00:29:39.729Z,17.10
2018-08-17T00:32:20.314Z,17.00
2018-08-17T00:34:49.490Z,16.90
2018-08-17T00:37:18.850Z,16.80
2018-08-17T00:39:55.572Z,16.70
2018-08-17T00:42:26.151Z,16.70
2018-08-17T00:44:55.815Z,16.70
2018-08-17T00:47:24.494Z,16.80
2018-08-17T00:49:54.940Z,16.80
2018-08-17T00:52:33.736Z,16.80
2018-08-17T00:55:14.438Z,16.70
2018-08-17T00:57:46.895Z,16.70
2018-08-17T01:00:15.498Z,16.60
2018-08-17T01:02:45.046Z,16.60
2018-08-17T01:05:13.497Z,16.60
2018-08-17T01:07:43.206Z,16.60
2018-08-17T01:10:11.840Z,16.60
2018-08-17T01:12:46.388Z,16.70
2018-08-17T01:15:26.068Z,16.80
2018-08-17T01:17:56.596Z,16.90
2018-08-17T01:20:29.932Z,16.90
2018-08-17T01:22:58.721Z,16.80
2018-08-17T01:25:39.586Z,16.70
2018-08-17T01:28:10.625Z,16.60
2018-08-17T01:30:51.555Z,16.40
2018-08-17T01:33:32.153Z,16.40
2018-08-17T01:36:18.061Z,16.40
2018-08-17T01:38:57.934Z,16.40
2018-08-17T01:44:22.621Z,16.50
2018-08-17T01:46:51.273Z,16.40
2018-08-17T01:49:35.983Z,16.50
2018-08-17T01:52:05.762Z,16.50
2018-08-17T01:54:35.524Z,16.50
2018-08-17T01:57:05.409Z,16.50
2018-08-17T01:59:35.083Z,16.60
2018-08-17T02:02:15.402Z,16.60
2018-08-17T02:04:48.751Z,16.60
2018-08-17T02:07:23.013Z,16.50
2018-08-17T02:09:51.635Z,16.60
2018-08-17T02:12:22.115Z,16.60
2018-08-17T02:14:55.747Z,16.60
2018-08-17T02:17:33.945Z,16.60
2018-08-17T02:20:22.033Z,16.60
2018-08-17T02:22:52.593Z,16.40
2018-08-17T02:25:37.265Z,16.30
2018-08-17T02:28:07.981Z,16.30
2018-08-17T02:30:42.001Z,16.40
2018-08-17T02:33:11.543Z,16.30
2018-08-17T02:35:50.709Z,16.30
2018-08-17T02:38:19.147Z,16.20
2018-08-17T02:40:51.501Z,16.30
2018-08-17T02:43:30.933Z,16.40
2018-08-17T02:46:01.666Z,16.40
2018-08-17T02:48:31.163Z,16.40
2018-08-17T02:51:05.837Z,16.50
2018-08-17T02:53:35.817Z,16.60
2018-08-17T02:56:08.836Z,16.50
2018-08-17T02:58:37.405Z,16.50
2018-08-17T03:01:10.509Z,16.50
2018-08-17T03:03:57.212Z,16.60
2018-08-17T03:06:27.761Z,16.60
2018-08-17T03:09:00.454Z,16.40
2018-08-17T03:11:45.147Z,16.40
2018-08-17T03:14:23.611Z,16.40
2018-08-17T03:17:06.379Z,16.40
2018-08-17T03:19:40.721Z,16.40
2018-08-17T03:22:15.432Z,16.50
2018-08-17T03:24:50.917Z,16.60
2018-08-17T03:27:24.293Z,16.60
2018-08-17T03:29:56.879Z,16.60
2018-08-17T03:32:26.313Z,16.60
2018-08-17T03:35:00.257Z,16.60
2018-08-17T03:37:30.787Z,16.70
2018-08-17T03:40:08.955Z,16.70
2018-08-17T03:42:44.383Z,16.60
2018-08-17T03:45:16.405Z,16.60
2018-08-17T03:47:55.897Z,16.60
2018-08-17T03:50:30.014Z,16.70
2018-08-17T03:53:03.675Z,16.60
2018-08-17T03:55:43.446Z,16.60
2018-08-17T03:58:23.191Z,16.60
2018-08-17T04:03:44.692Z,16.60
2018-08-17T04:06:27.655Z,16.70
2018-08-17T04:09:19.361Z,16.70
2018-08-17T04:11:53.231Z,16.70
2018-08-17T04:14:25.617Z,16.70
2018-08-17T04:17:05.849Z,16.70
2018-08-17T04:19:34.358Z,16.70
2018-08-17T04:22:02.724Z,16.60
2018-08-17T04:24:42.383Z,16.50
2018-08-17T04:27:10.855Z,16.50
2018-08-17T04:29:40.579Z,16.50
2018-08-17T04:32:21.622Z,16.50
2018-08-17T04:35:01.995Z,16.50
2018-08-17T04:37:31.037Z,16.50
2018-08-17T04:40:06.925Z,16.50
2018-08-17T04:42:37.161Z,16.50
2018-08-17T04:45:07.309Z,16.50
2018-08-17T04:47:37.492Z,16.60
2018-08-17T04:50:08.497Z,16.50
2018-08-17T04:52:43.034Z,16.60
2018-08-17T04:55:13.755Z,16.50
2018-08-17T04:57:55.537Z,16.60
2018-08-17T05:00:42.829Z,16.60
2018-08-17T05:03:29.856Z,16.60
2018-08-17T05:05:58.843Z,16.50
2018-08-17T05:08:27.924Z,16.50
2018-08-17T05:11:00.224Z,16.50
2018-08-17T05:13:29.078Z,16.50
2018-08-17T05:15:59.581Z,16.40
2018-08-17T05:18:28.275Z,16.40
2018-08-17T05:20:57.444Z,16.50
2018-08-17T05:23:26.070Z,16.50
2018-08-17T05:26:10.071Z,16.40
2018-08-17T05:28:51.995Z,16.30
2018-08-17T05:31:20.745Z,16.40
2018-08-17T05:33:50.375Z,16.40
2018-08-17T05:36:30.150Z,16.40
2018-08-17T05:39:02.375Z,16.30
2018-08-17T05:41:33.012Z,16.30
2018-08-17T05:44:04.883Z,16.30
2018-08-17T05:46:38.997Z,16.30
2018-08-17T05:49:09.537Z,16.30
2018-08-17T05:51:40.261Z,16.30
2018-08-17T05:54:17.501Z,16.30
2018-08-17T05:56:46.185Z,16.40
2018-08-17T05:59:18.737Z,16.40
2018-08-17T06:04:39.743Z,16.30
2018-08-17T06:07:10.319Z,16.40
2018-08-17T06:09:41.805Z,16.40
2018-08-17T06:12:26.558Z,16.40
2018-08-17T06:18:16.012Z,16.40
2018-08-17T06:21:05.410Z,16.40
2018-08-17T06:23:38.865Z,16.50
2018-08-17T06:26:07.289Z,16.60
2018-08-17T06:28:39.913Z,16.70
2018-08-17T06:34:02.001Z,16.70
2018-08-17T06:42:20.680Z,16.80
2018-08-17T06:47:59.120Z,17.00
2018-08-17T06:53:21.035Z,17.20
2018-08-17T06:56:02.295Z,17.20
2018-08-17T06:58:33.010Z,17.20
2018-08-17T07:01:06.774Z,17.30
2018-08-17T07:03:44.663Z,17.30
2018-08-17T07:06:16.225Z,17.30
2018-08-17T07:11:54.913Z,17.40
2018-08-17T07:14:26.734Z,17.40
2018-08-17T07:22:44.001Z,17.50
2018-08-17T07:25:12.722Z,17.70
2018-08-17T07:27:51.346Z,17.70
2018-08-17T07:30:30.645Z,17.90
2018-08-17T07:33:09.075Z,18.00
2018-08-17T07:35:37.624Z,18.10
2018-08-17T07:38:07.388Z,18.20
2018-08-17T07:40:42.110Z,18.30
2018-08-17T07:46:05.855Z,18.50
2018-08-17T07:48:40.105Z,18.50
2018-08-17T07:51:12.203Z,18.50
2018-08-17T07:53:40.873Z,18.50
2018-08-17T07:56:09.766Z,18.50
2018-08-17T07:58:38.227Z,18.60
2018-08-17T08:01:09.749Z,18.50
2018-08-17T08:03:38.317Z,18.50
2018-08-17T08:06:07.053Z,18.40
2018-08-17T08:08:36.685Z,18.40
2018-08-17T08:11:05.697Z,18.40
2018-08-17T08:13:36.277Z,18.50
2018-08-17T08:16:05.783Z,18.70
2018-08-17T08:18:46.152Z,18.80
2018-08-17T08:21:27.050Z,19.00
2018-08-17T08:24:02.803Z,19.10
2018-08-17T08:26:34.890Z,19.30
2018-08-17T08:29:09.106Z,19.30
2018-08-17T08:31:38.732Z,19.30
2018-08-17T08:34:08.377Z,19.00
2018-08-17T08:36:37.018Z,19.40
2018-08-17T08:39:13.185Z,19.70
2018-08-17T08:41:48.799Z,19.80
2018-08-17T08:44:28.565Z,19.90
2018-08-17T08:46:56.983Z,19.60
2018-08-17T08:49:32.701Z,19.90
2018-08-17T08:52:08.442Z,20.20
2018-08-17T08:54:42.672Z,20.10
2018-08-17T08:57:12.437Z,20.00
2018-08-17T08:59:48.501Z,19.90
2018-08-17T09:02:17.975Z,19.90
2018-08-17T09:05:10.289Z,19.70
2018-08-17T09:07:49.077Z,19.70
2018-08-17T09:10:18.763Z,19.70
2018-08-17T09:12:52.319Z,19.80
2018-08-17T09:15:20.736Z,19.90
2018-08-17T09:17:55.002Z,19.90
2018-08-17T09:20:23.432Z,19.80
2018-08-17T09:22:56.278Z,19.80
2018-08-17T09:25:25.896Z,19.60
2018-08-17T09:27:54.239Z,19.50
2018-08-17T09:30:22.649Z,19.60
2018-08-17T09:32:55.651Z,19.60
2018-08-17T09:35:26.194Z,19.80
2018-08-17T09:37:55.849Z,19.90
2018-08-17T09:40:24.593Z,20.00
2018-08-17T09:42:58.698Z,20.10
2018-08-17T09:45:43.334Z,19.90
2018-08-17T09:48:15.191Z,19.90
2018-08-17T09:50:48.773Z,20.00
2018-08-17T09:53:22.893Z,20.00
2018-08-17T09:55:51.315Z,20.10
2018-08-17T09:58:24.351Z,20.10
2018-08-17T10:00:57.962Z,20.20
2018-08-17T10:03:31.515Z,20.00
2018-08-17T10:06:06.049Z,20.00
2018-08-17T10:08:39.739Z,20.10
2018-08-17T10:11:08.077Z,20.00
2018-08-17T10:13:36.457Z,20.30
2018-08-17T10:16:04.805Z,20.40
2018-08-17T10:18:41.221Z,20.50
2018-08-17T10:21:09.747Z,20.40
2018-08-17T10:23:38.030Z,20.40
2018-08-17T10:26:06.432Z,20.50
2018-08-17T10:28:34.852Z,20.70
2018-08-17T10:31:03.256Z,20.80
2018-08-17T10:33:31.661Z,20.90
2018-08-17T10:36:00.073Z,21.00
2018-08-17T10:38:31.901Z,21.10
2018-08-17T10:41:01.506Z,21.10
2018-08-17T10:43:31.087Z,20.90
2018-08-17T10:46:00.003Z,21.10
2018-08-17T10:48:38.608Z,21.10
2018-08-17T10:51:10.971Z,21.40
2018-08-17T10:53:45.958Z,21.20
2018-08-17T10:56:19.429Z,21.60
2018-08-17T10:58:57.241Z,21.80
2018-08-17T11:01:27.989Z,21.80
2018-08-17T11:03:59.609Z,21.50
2018-08-17T11:06:28.128Z,21.60
2018-08-17T11:09:04.653Z,21.90
2018-08-17T11:11:50.839Z,21.30
2018-08-17T11:14:26.916Z,21.10
2018-08-17T11:17:00.221Z,21.40
2018-08-17T11:19:30.757Z,21.90
2018-08-17T11:22:04.090Z,22.20
2018-08-17T11:24:34.567Z,22.40
2018-08-17T11:27:05.319Z,22.60
2018-08-17T11:29:33.821Z,22.70
2018-08-17T11:32:05.546Z,22.80
2018-08-17T11:34:41.301Z,22.50
2018-08-17T11:37:09.997Z,22.10
2018-08-17T11:39:42.107Z,21.80
2018-08-17T11:42:17.527Z,21.90
2018-08-17T11:45:00.595Z,22.20
2018-08-17T11:47:40.857Z,22.60
2018-08-17T11:50:12.045Z,22.80
2018-08-17T11:52:59.805Z,22.60
2018-08-17T11:55:31.699Z,23.00
2018-08-17T11:58:03.725Z,23.40
2018-08-17T12:00:41.871Z,23.60
2018-08-17T12:03:27.737Z,23.60
2018-08-17T12:06:02.019Z,23.50
2018-08-17T12:08:35.426Z,23.30
2018-08-17T12:11:11.035Z,22.90
2018-08-17T12:13:41.591Z,22.90
2018-08-17T12:16:28.085Z,22.60
2018-08-17T12:18:56.527Z,22.60
2018-08-17T12:21:29.551Z,22.70
2018-08-17T12:24:01.513Z,22.50
2018-08-17T12:26:38.055Z,22.60
2018-08-17T12:29:16.209Z,22.80
2018-08-17T12:31:48.491Z,22.40
2018-08-17T12:34:24.203Z,22.50
2018-08-17T12:36:54.751Z,22.60
2018-08-17T12:39:35.104Z,22.50
2018-08-17T12:42:15.887Z,22.60
2018-08-17T12:44:48.785Z,22.80
2018-08-17T12:47:35.858Z,22.80
2018-08-17T12:50:17.481Z,22.50
2018-08-17T12:52:50.148Z,22.50
2018-08-17T12:55:22.239Z,22.80
2018-08-17T12:57:53.998Z,23.10
2018-08-17T13:00:36.550Z,23.30
2018-08-17T13:03:10.728Z,23.50
2018-08-17T13:05:41.259Z,23.20
2018-08-17T13:08:17.043Z,23.30
2018-08-17T13:10:49.155Z,23.60
2018-08-17T13:13:23.576Z,23.20
2018-08-17T13:16:01.321Z,23.40
2018-08-17T13:18:33.560Z,23.50
2018-08-17T13:21:05.519Z,23.60
2018-08-17T13:23:34.679Z,23.60
2018-08-17T13:26:09.099Z,23.80
2018-08-17T13:28:41.690Z,24.00
2018-08-17T13:31:11.347Z,23.90
2018-08-17T13:33:56.803Z,23.90
2018-08-17T13:36:31.835Z,23.80
2018-08-17T13:39:09.474Z,23.80
2018-08-17T13:41:48.639Z,23.90
2018-08-17T13:44:29.365Z,23.60
2018-08-17T13:47:00.089Z,23.50
2018-08-17T13:49:29.799Z,23.40
2018-08-17T13:51:59.643Z,23.40
2018-08-17T13:54:29.708Z,23.30
2018-08-17T13:57:05.059Z,23.20
2018-08-17T13:59:33.706Z,23.20
2018-08-17T14:02:07.162Z,23.00
2018-08-17T14:04:35.783Z,22.80
2018-08-17T14:07:07.461Z,22.80
2018-08-17T14:09:45.817Z,22.90
2018-08-17T14:12:20.126Z,23.00
2018-08-17T14:14:55.570Z,23.00
2018-08-17T14:17:28.371Z,23.00
2018-08-17T14:19:57.929Z,23.10
2018-08-17T14:22:29.920Z,23.20
2018-08-17T14:24:58.270Z,23.20
2018-08-17T14:27:26.693Z,23.30
2018-08-17T14:29:55.892Z,23.40
2018-08-17T14:32:24.803Z,23.40
2018-08-17T14:34:53.413Z,23.40
2018-08-17T14:37:22.055Z,23.40
2018-08-17T14:39:50.639Z,23.20
2018-08-17T14:42:23.754Z,23.30
2018-08-17T14:44:52.423Z,23.30
2018-08-17T14:47:21.162Z,23.20
2018-08-17T14:49:50.179Z,23.20
2018-08-17T14:52:23.838Z,23.20
2018-08-17T14:54:53.161Z,23.20
2018-08-17T14:57:22.659Z,23.10
2018-08-17T14:59:51.267Z,22.90
2018-08-17T15:02:27.931Z,22.80
2018-08-17T15:04:56.632Z,22.80
2018-08-17T15:07:26.522Z,22.70
2018-08-17T15:09:55.123Z,22.60
2018-08-17T15:12:29.631Z,22.60
2018-08-17T15:14:58.528Z,22.60
2018-08-17T15:17:27.296Z,22.80
2018-08-17T15:19:56.006Z,23.00
2018-08-17T15:22:24.602Z,23.20
2018-08-17T15:24:55.214Z,23.30
2018-08-17T15:27:24.974Z,23.40
2018-08-17T15:30:00.542Z,23.40
2018-08-17T15:32:30.204Z,23.40
2018-08-17T15:35:08.540Z,23.50
2018-08-17T15:37:39.870Z,23.60
2018-08-17T15:40:13.564Z,23.60
2018-08-17T15:42:46.181Z,23.60
2018-08-17T15:45:25.368Z,23.40
2018-08-17T15:47:54.224Z,23.20
2018-08-17T15:50:22.834Z,23.10
2018-08-17T15:52:52.457Z,22.90
2018-08-17T15:55:21.251Z,22.80
2018-08-17T15:57:50.967Z,22.80
2018-08-17T16:00:21.418Z,22.80
2018-08-17T16:02:52.377Z,22.90
2018-08-17T16:05:22.094Z,23.00
2018-08-17T16:07:55.122Z,23.10
2018-08-17T16:10:23.762Z,23.10
2018-08-17T16:12:58.836Z,23.10
2018-08-17T16:15:30.943Z,23.10
2018-08-17T16:18:06.918Z,23.10
2018-08-17T16:20:38.810Z,22.80
2018-08-17T16:23:08.434Z,22.70
2018-08-17T16:25:40.814Z,22.50
2018-08-17T16:28:10.345Z,22.50
2018-08-17T16:30:49.162Z,22.50
2018-08-17T16:33:19.730Z,22.60
2018-08-17T16:35:56.317Z,22.40
2018-08-17T16:38:41.585Z,22.30
2018-08-17T16:41:19.591Z,22.30
2018-08-17T16:43:50.074Z,22.40
2018-08-17T16:46:26.805Z,22.40
2018-08-17T16:48:57.391Z,22.20
2018-08-17T16:51:31.470Z,22.20
2018-08-17T16:54:09.739Z,22.30
2018-08-17T16:56:43.070Z,22.30
2018-08-17T16:59:12.100Z,22.20
2018-08-17T17:01:40.738Z,22.30
2018-08-17T17:04:16.410Z,22.30
2018-08-17T17:06:49.543Z,22.20
2018-08-17T17:09:24.824Z,22.10
2018-08-17T17:12:11.682Z,22.00
2018-08-17T17:14:47.317Z,21.90
2018-08-17T17:17:19.310Z,21.90
2018-08-17T17:19:49.700Z,21.90
2018-08-17T17:22:28.296Z,21.90
2018-08-17T17:25:04.576Z,21.80
2018-08-17T17:27:38.406Z,21.90
2018-08-17T17:30:07.861Z,21.90
2018-08-17T17:32:44.734Z,21.90
2018-08-17T17:35:31.903Z,21.70
2018-08-17T17:38:17.164Z,21.70
2018-08-17T17:40:48.968Z,21.70
2018-08-17T17:43:17.627Z,21.60
2018-08-17T17:45:52.934Z,21.60
2018-08-17T17:48:26.722Z,21.50
2018-08-17T17:50:59.363Z,21.50
2018-08-17T17:53:29.016Z,21.30
2018-08-17T17:56:02.934Z,21.20
2018-08-17T17:58:33.404Z,21.20
2018-08-17T18:01:09.036Z,21.10
2018-08-17T18:03:44.416Z,21.00
2018-08-17T18:06:13.118Z,21.10
2018-08-17T18:08:42.580Z,21.00
2018-08-17T18:11:12.186Z,20.90
2018-08-17T18:13:40.682Z,20.90
2018-08-17T18:16:10.256Z,20.80
2018-08-17T18:18:38.871Z,20.80
2018-08-17T18:21:10.692Z,20.70
2018-08-17T18:23:40.299Z,20.60
2018-08-17T18:26:10.530Z,20.50
2018-08-17T18:28:39.234Z,20.50
2018-08-17T18:31:09.160Z,20.40
2018-08-17T18:33:38.728Z,20.30
2018-08-17T18:36:08.348Z,20.20
2018-08-17T18:38:37.646Z,20.10
2018-08-17T18:41:07.256Z,20.10
2018-08-17T18:43:37.032Z,20.00
2018-08-17T18:46:13.796Z,19.90
2018-08-17T18:51:30.277Z,19.70
2018-08-17T18:54:01.608Z,19.60
2018-08-17T18:56:31.491Z,19.60
2018-08-17T18:59:01.419Z,19.50
2018-08-17T19:01:34.052Z,19.40
2018-08-17T19:04:12.174Z,19.40
2018-08-17T19:06:46.137Z,19.30
2018-08-17T19:09:16.366Z,19.30
2018-08-17T19:11:50.794Z,19.20
2018-08-17T19:14:46.109Z,19.10
2018-08-17T19:17:26.992Z,19.00
2018-08-17T19:19:56.016Z,18.90
2018-08-17T19:22:29.051Z,18.80
2018-08-17T19:24:57.750Z,18.80
2018-08-17T19:27:35.161Z,18.70
2018-08-17T19:30:24.987Z,18.70
2018-08-17T19:32:57.301Z,18.60
2018-08-17T19:35:33.721Z,18.60
2018-08-17T19:38:07.676Z,18.50
2018-08-17T19:40:37.416Z,18.40
2018-08-17T19:43:06.497Z,18.40
2018-08-17T19:45:41.308Z,18.30
2018-08-17T19:48:11.360Z,18.30
2018-08-17T19:50:41.153Z,18.30
2018-08-17T19:53:13.410Z,18.20
2018-08-17T19:55:43.089Z,18.10
2018-08-17T19:58:11.924Z,18.00
2018-08-17T20:00:41.102Z,17.90
2018-08-17T20:03:11.631Z,17.90
2018-08-17T20:05:42.424Z,17.80
2018-08-17T20:08:12.375Z,17.80
2018-08-17T20:10:42.504Z,17.80
2018-08-17T20:13:11.266Z,17.80
2018-08-17T20:15:40.045Z,17.70
2018-08-17T20:18:08.724Z,17.60
2018-08-17T20:20:38.513Z,17.60
2018-08-17T20:23:09.377Z,17.50
2018-08-17T20:25:38.145Z,17.40
2018-08-17T20:28:08.808Z,17.20
2018-08-17T20:30:44.929Z,17.10
2018-08-17T20:33:22.724Z,17.00
2018-08-17T20:36:08.613Z,16.90
2018-08-17T20:38:37.335Z,16.80
2018-08-17T20:41:06.081Z,16.70
2018-08-17T20:43:34.727Z,16.70
2018-08-17T20:46:06.682Z,16.80
2018-08-17T20:48:36.450Z,16.80
2018-08-17T20:51:12.305Z,16.80
2018-08-17T20:53:54.046Z,16.70
2018-08-17T20:56:23.654Z,16.60
2018-08-17T20:58:52.395Z,16.50
2018-08-17T21:01:21.156Z,16.40
2018-08-17T21:03:50.677Z,16.40
2018-08-17T21:06:22.355Z,16.20
2018-08-17T21:08:51.123Z,16.20
2018-08-17T21:11:24.937Z,16.20
2018-08-17T21:13:55.443Z,16.10
2018-08-17T21:16:29.080Z,16.10
2018-08-17T21:18:57.700Z,16.00
2018-08-17T21:21:26.148Z,16.00
2018-08-17T21:23:54.972Z,16.00
2018-08-17T21:26:23.478Z,15.90
2018-08-17T21:28:51.929Z,15.90
2018-08-17T21:31:20.555Z,15.80
2018-08-17T21:33:50.446Z,15.80
2018-08-17T21:36:24.378Z,15.70
2018-08-17T21:39:23.734Z,15.70
2018-08-17T21:41:52.274Z,15.60
2018-08-17T21:44:33.124Z,15.50
2018-08-17T21:47:04.906Z,15.50
2018-08-17T21:49:34.479Z,15.50
2018-08-17T21:52:26.841Z,15.40
2018-08-17T21:54:59.193Z,15.30
2018-08-17T21:57:44.303Z,15.20
2018-08-17T22:00:21.354Z,15.10
2018-08-17T22:02:50.039Z,15.00
2018-08-17T22:05:27.705Z,15.00
2018-08-17T22:08:01.246Z,14.90
2018-08-17T22:10:39.251Z,14.80
2018-08-17T22:13:17.579Z,14.80
2018-08-17T22:15:52.022Z,14.70
2018-08-17T22:18:25.981Z,14.70
2018-08-17T22:21:06.531Z,14.60
2018-08-17T22:23:44.853Z,14.60
2018-08-17T22:26:15.376Z,14.50
2018-08-17T22:28:50.198Z,14.50
2018-08-17T22:31:31.092Z,14.40
2018-08-17T22:34:15.797Z,14.40
2018-08-17T22:36:46.436Z,14.40
2018-08-17T22:39:25.778Z,14.30
2018-08-17T22:42:01.285Z,14.30
2018-08-17T22:44:34.543Z,14.30
2018-08-17T22:47:16.682Z,14.20
2018-08-17T22:49:50.534Z,14.20
2018-08-17T22:52:19.947Z,14.20
2018-08-17T22:55:01.670Z,14.20
2018-08-17T22:57:31.044Z,14.10
2018-08-17T23:02:55.293Z,14.20
2018-08-17T23:05:28.943Z,14.10
2018-08-17T23:07:58.462Z,14.10
2018-08-17T23:10:29.462Z,14.10
2018-08-17T23:13:05.924Z,14.10
2018-08-17T23:15:46.975Z,14.00
2018-08-17T23:18:16.573Z,14.00
2018-08-17T23:20:49.191Z,13.90
2018-08-17T23:23:18.842Z,13.90
2018-08-17T23:25:49.380Z,13.80
2018-08-17T23:28:21.188Z,13.80
2018-08-17T23:31:00.526Z,13.80
2018-08-17T23:33:28.956Z,13.80
2018-08-17T23:35:57.293Z,13.70
2018-08-17T23:38:25.677Z,13.70
2018-08-17T23:40:54.048Z,13.70
2018-08-17T23:43:23.654Z,13.70
2018-08-17T23:45:58.820Z,13.60
2018-08-17T23:48:29.317Z,13.60
2018-08-17T23:50:58.930Z,13.60
2018-08-17T23:53:37.161Z,13.60
2018-08-17T23:56:16.578Z,13.50
2018-08-17T23:58:44.923Z,13.60
